createdAt,value
2019-05-15T00:02:15.544Z,16.74
2019-05-15T00:04:46.353Z,16.77
2019-05-15T00:07:18.320Z,16.57
2019-05-15T00:09:49.908Z,16.56
2019-05-15T00:12:20.845Z,16.53
2019-05-15T00:14:51.983Z,16.37
2019-05-15T00:17:23.448Z,16.43
2019-05-15T00:19:54.763Z,16.38
2019-05-15T00:22:26.238Z,16.33
2019-05-15T00:24:58.214Z,16.30
2019-05-15T00:27:30.695Z,16.30
2019-05-15T00:30:02.178Z,16.27
2019-05-15T00:32:35.288Z,16.21
2019-05-15T00:35:09.109Z,16.13
2019-05-15T00:37:39.692Z,15.94
2019-05-15T00:40:11.514Z,15.98
2019-05-15T00:42:42.777Z,15.81
2019-05-15T00:45:13.621Z,15.85
2019-05-15T00:47:44.791Z,15.70
2019-05-15T00:50:18.179Z,15.73
2019-05-15T00:52:49.371Z,15.74
2019-05-15T00:55:20.747Z,15.71
2019-05-15T00:57:52.154Z,15.62
2019-05-15T01:00:38.575Z,15.68
2019-05-15T01:03:13.100Z,15.67
2019-05-15T01:05:44.463Z,15.62
2019-05-15T01:08:15.799Z,15.57
2019-05-15T01:10:48.838Z,15.51
2019-05-15T01:13:20.280Z,15.53
2019-05-15T01:15:51.647Z,15.51
2019-05-15T01:18:23.038Z,15.49
2019-05-15T01:20:54.374Z,15.47
2019-05-15T01:23:28.076Z,15.43
2019-05-15T01:25:58.958Z,15.39
2019-05-15T01:28:30.344Z,15.37
2019-05-15T01:31:01.681Z,15.35
2019-05-15T01:33:33.015Z,15.35
2019-05-15T01:36:04.390Z,15.29
2019-05-15T01:38:35.843Z,15.28
2019-05-15T01:41:09.718Z,15.27
2019-05-15T01:43:41.389Z,15.20
2019-05-15T01:46:12.717Z,15.20
2019-05-15T01:48:44.131Z,15.17
2019-05-15T01:51:15.420Z,15.17
2019-05-15T01:53:48.067Z,15.13
2019-05-15T01:56:19.630Z,15.10
2019-05-15T01:58:51.083Z,15.06
2019-05-15T02:01:22.399Z,15.06
2019-05-15T02:03:53.830Z,15.04
2019-05-15T02:06:24.637Z,15.01
2019-05-15T02:08:55.700Z,14.91
2019-05-15T02:11:28.849Z,14.94
2019-05-15T02:14:00.242Z,14.91
2019-05-15T02:16:31.734Z,14.97
2019-05-15T02:19:03.164Z,14.99
2019-05-15T02:21:34.463Z,14.99
2019-05-15T02:24:07.810Z,15.02
2019-05-15T02:26:39.041Z,15.08
2019-05-15T02:29:16.111Z,15.12
2019-05-15T02:31:44.610Z,15.16
2019-05-15T02:34:19.217Z,15.19
2019-05-15T02:36:50.051Z,15.20
2019-05-15T02:39:21.426Z,15.28
2019-05-15T02:41:52.849Z,15.31
2019-05-15T02:44:24.219Z,15.32
2019-05-15T02:46:58.611Z,15.34
2019-05-15T02:49:30.122Z,15.41
2019-05-15T02:52:01.914Z,15.49
2019-05-15T02:54:33.296Z,15.53
2019-05-15T02:57:04.596Z,15.51
2019-05-15T02:59:39.335Z,15.50
2019-05-15T03:02:10.140Z,15.55
2019-05-15T03:04:41.834Z,15.65
2019-05-15T03:07:13.176Z,15.66
2019-05-15T03:09:44.503Z,15.66
2019-05-15T03:12:19.384Z,15.68
2019-05-15T03:14:49.276Z,15.68
2019-05-15T03:17:21.467Z,15.71
2019-05-15T03:19:52.876Z,15.72
2019-05-15T03:22:29.134Z,15.73
2019-05-15T03:24:59.458Z,15.82
2019-05-15T03:27:34.629Z,15.94
2019-05-15T03:30:02.831Z,15.94
2019-05-15T03:32:42.751Z,16.07
2019-05-15T03:35:13.213Z,16.14
2019-05-15T03:37:40.948Z,16.30
2019-05-15T03:40:12.386Z,16.43
2019-05-15T03:42:43.719Z,16.54
2019-05-15T03:45:15.125Z,16.62
2019-05-15T03:47:49.111Z,16.75
2019-05-15T03:50:19.681Z,16.89
2019-05-15T03:52:51.153Z,17.00
2019-05-15T03:55:22.622Z,17.14
2019-05-15T03:57:54.018Z,17.25
2019-05-15T04:00:25.404Z,17.36
2019-05-15T04:02:59.045Z,17.50
2019-05-15T04:05:29.805Z,17.66
2019-05-15T04:08:01.208Z,17.81
2019-05-15T04:10:32.672Z,17.92
2019-05-15T04:13:04.393Z,18.04
2019-05-15T04:15:39.063Z,18.18
2019-05-15T04:18:09.538Z,18.31
2019-05-15T04:20:41.248Z,18.46
2019-05-15T04:23:13.691Z,18.59
2019-05-15T04:32:43.498Z,18.99
2019-05-15T04:35:19.801Z,19.15
2019-05-15T04:38:12.160Z,19.27
2019-05-15T04:44:00.716Z,19.60
2019-05-15T04:46:34.841Z,19.80
2019-05-15T04:49:09.209Z,19.94
2019-05-15T04:51:49.691Z,20.11
2019-05-15T04:54:34.029Z,20.26
2019-05-15T04:57:11.444Z,20.42
2019-05-15T05:00:09.208Z,20.52
2019-05-15T05:02:40.250Z,20.60
2019-05-15T05:05:12.228Z,20.67
2019-05-15T05:07:48.924Z,20.80
2019-05-15T05:10:20.065Z,20.79
2019-05-15T05:12:51.650Z,20.86
2019-05-15T05:15:24.268Z,20.96
2019-05-15T05:17:58.426Z,21.10
2019-05-15T05:20:29.505Z,21.25
2019-05-15T05:23:04.074Z,21.34
2019-05-15T05:25:38.680Z,21.46
2019-05-15T05:28:11.165Z,21.49
2019-05-15T05:30:43.956Z,21.56
2019-05-15T05:36:24.485Z,21.72
2019-05-15T05:38:58.330Z,21.77
2019-05-15T05:41:29.335Z,21.85
2019-05-15T05:44:00.733Z,21.98
2019-05-15T05:46:32.359Z,22.05
2019-05-15T05:49:03.918Z,22.03
2019-05-15T05:51:34.838Z,22.14
2019-05-15T05:54:08.292Z,22.13
2019-05-15T05:56:39.674Z,22.29
2019-05-15T05:59:11.227Z,22.40
2019-05-15T06:01:44.301Z,22.52
2019-05-15T06:04:18.628Z,22.53
2019-05-15T06:07:06.215Z,22.63
2019-05-15T06:09:27.819Z,22.68
2019-05-15T06:15:31.543Z,22.69
2019-05-15T06:18:05.081Z,22.74
2019-05-15T06:20:39.714Z,22.83
2019-05-15T06:23:23.797Z,22.84
2019-05-15T06:25:54.409Z,22.94
2019-05-15T06:28:25.113Z,22.93
2019-05-15T06:31:00.393Z,22.87
2019-05-15T06:33:29.535Z,23.02
2019-05-15T06:36:00.172Z,23.09
2019-05-15T06:38:31.349Z,23.01
2019-05-15T06:41:02.638Z,23.11
2019-05-15T06:43:44.124Z,23.14
2019-05-15T06:46:21.562Z,23.32
2019-05-15T06:48:58.061Z,23.45
2019-05-15T06:51:48.708Z,23.51
2019-05-15T06:54:37.659Z,23.50
2019-05-15T06:57:14.383Z,23.60
2019-05-15T06:59:53.225Z,23.71
2019-05-15T07:02:29.216Z,23.73
2019-05-15T07:05:25.322Z,23.72
2019-05-15T07:08:01.039Z,23.81
2019-05-15T07:13:50.599Z,23.97
2019-05-15T07:16:29.620Z,24.08
2019-05-15T07:19:10.710Z,24.15
2019-05-15T07:22:06.160Z,24.26
2019-05-15T07:25:10.296Z,24.31
2019-05-15T07:28:12.323Z,24.25
2019-05-15T07:30:45.525Z,24.32
2019-05-15T07:33:35.421Z,24.45
2019-05-15T07:35:55.324Z,24.47
2019-05-15T07:38:40.395Z,24.56
2019-05-15T07:41:39.376Z,24.64
2019-05-15T07:44:14.495Z,24.58
2019-05-15T07:46:49.770Z,24.77
2019-05-15T07:52:55.493Z,24.90
2019-05-15T07:55:46.108Z,25.03
2019-05-15T07:58:21.434Z,25.23
2019-05-15T08:00:53.833Z,25.30
2019-05-15T08:03:24.686Z,25.20
2019-05-15T08:06:02.759Z,24.95
2019-05-15T08:08:45.541Z,24.80
2019-05-15T08:11:29.521Z,24.88
2019-05-15T08:14:04.092Z,24.75
2019-05-15T08:16:35.541Z,24.74
2019-05-15T08:19:08.594Z,24.71
2019-05-15T08:21:41.482Z,24.59
2019-05-15T08:24:12.742Z,24.59
2019-05-15T08:26:45.623Z,24.58
2019-05-15T08:29:21.139Z,24.51
2019-05-15T08:31:50.325Z,24.50
2019-05-15T08:34:21.712Z,24.53
2019-05-15T08:36:52.442Z,24.51
2019-05-15T08:39:23.496Z,24.38
2019-05-15T08:41:55.831Z,24.46
2019-05-15T08:44:29.130Z,24.45
2019-05-15T08:46:59.986Z,24.31
2019-05-15T08:49:32.858Z,24.50
2019-05-15T08:52:07.797Z,24.59
2019-05-15T08:54:41.024Z,24.66
2019-05-15T08:57:20.658Z,24.69
2019-05-15T09:00:32.499Z,24.80
2019-05-15T09:03:11.988Z,24.91
2019-05-15T09:06:41.908Z,25.04
2019-05-15T09:09:09.542Z,25.18
2019-05-15T09:11:40.710Z,25.23
2019-05-15T09:14:33.419Z,25.34
2019-05-15T09:17:18.189Z,25.38
2019-05-15T09:20:08.378Z,25.49
2019-05-15T09:22:58.348Z,25.56
2019-05-15T09:25:40.167Z,25.65
2019-05-15T09:35:42.824Z,25.63
2019-05-15T09:38:28.902Z,25.65
2019-05-15T09:41:44.136Z,25.75
2019-05-15T09:44:21.723Z,25.70
2019-05-15T09:47:11.695Z,25.72
2019-05-15T09:49:51.395Z,25.82
2019-05-15T09:52:23.206Z,25.93
2019-05-15T09:54:55.695Z,26.02
2019-05-15T09:57:30.180Z,26.11
2019-05-15T10:00:00.190Z,26.20
2019-05-15T10:02:31.900Z,26.27
2019-05-15T10:05:10.460Z,26.28
2019-05-15T10:07:42.041Z,26.38
2019-05-15T10:10:13.413Z,26.48
2019-05-15T10:12:44.164Z,26.32
2019-05-15T10:15:15.246Z,25.93
2019-05-15T10:17:50.677Z,25.96
2019-05-15T10:20:20.881Z,26.10
2019-05-15T10:22:54.857Z,26.14
2019-05-15T10:25:25.136Z,26.15
2019-05-15T10:27:57.957Z,26.25
2019-05-15T10:30:29.526Z,26.31
2019-05-15T10:33:00.168Z,26.40
2019-05-15T10:35:31.915Z,26.32
2019-05-15T10:38:03.433Z,26.38
2019-05-15T10:40:34.114Z,26.40
2019-05-15T10:43:05.235Z,26.30
2019-05-15T10:45:41.582Z,26.39
2019-05-15T10:48:09.725Z,26.41
2019-05-15T10:50:41.077Z,26.38
2019-05-15T10:53:11.747Z,26.45
2019-05-15T10:55:42.782Z,26.33
2019-05-15T10:58:17.248Z,26.39
2019-05-15T11:00:49.278Z,26.49
2019-05-15T11:03:20.316Z,26.60
2019-05-15T11:05:52.727Z,26.66
2019-05-15T11:08:23.979Z,26.56
2019-05-15T11:10:55.326Z,26.68
2019-05-15T11:13:26.012Z,26.72
2019-05-15T11:15:57.234Z,26.70
2019-05-15T11:18:30.814Z,26.61
2019-05-15T11:21:00.641Z,26.44
2019-05-15T11:23:32.014Z,26.49
2019-05-15T11:26:02.676Z,26.53
2019-05-15T11:28:34.588Z,26.44
2019-05-15T11:31:09.975Z,26.62
2019-05-15T11:33:39.359Z,26.74
2019-05-15T11:36:10.604Z,26.84
2019-05-15T11:38:41.248Z,26.86
2019-05-15T11:41:14.223Z,26.74
2019-05-15T11:43:45.519Z,26.94
2019-05-15T11:46:18.575Z,27.12
2019-05-15T11:48:50.055Z,27.09
2019-05-15T11:51:21.442Z,27.19
2019-05-15T11:53:52.885Z,27.26
2019-05-15T11:56:24.349Z,27.34
2019-05-15T11:58:56.310Z,27.31
2019-05-15T12:01:28.802Z,27.33
2019-05-15T12:04:00.393Z,27.37
2019-05-15T12:06:31.011Z,27.38
2019-05-15T12:09:02.080Z,27.20
2019-05-15T12:11:37.254Z,27.14
2019-05-15T12:14:08.506Z,27.12
2019-05-15T12:16:40.692Z,27.14
2019-05-15T12:19:16.995Z,27.30
2019-05-15T12:21:45.151Z,27.32
2019-05-15T12:24:15.905Z,27.36
2019-05-15T12:26:48.960Z,27.27
2019-05-15T12:29:19.965Z,27.31
2019-05-15T12:31:51.294Z,27.46
2019-05-15T12:34:21.948Z,27.51
2019-05-15T12:36:57.693Z,27.36
2019-05-15T12:39:29.982Z,27.28
2019-05-15T12:59:51.387Z,27.52
2019-05-15T13:02:21.991Z,27.47
2019-05-15T13:04:53.087Z,27.41
2019-05-15T13:07:23.666Z,27.45
2019-05-15T13:09:58.079Z,27.48
2019-05-15T13:12:29.461Z,27.47
2019-05-15T13:15:00.072Z,27.62
2019-05-15T13:17:31.162Z,27.41
2019-05-15T13:20:02.529Z,27.47
2019-05-15T13:22:36.320Z,27.40
2019-05-15T13:25:08.591Z,27.54
2019-05-15T13:27:40.089Z,27.59
2019-05-15T13:30:13.523Z,27.57
2019-05-15T13:32:44.895Z,27.40
2019-05-15T13:35:15.438Z,27.41
2019-05-15T13:37:49.186Z,27.15
2019-05-15T13:40:32.843Z,27.33
2019-05-15T13:42:52.820Z,27.48
2019-05-15T13:45:24.316Z,27.64
2019-05-15T13:47:55.809Z,27.59
2019-05-15T13:50:28.458Z,27.58
2019-05-15T13:53:00.085Z,27.71
2019-05-15T13:55:36.461Z,27.86
2019-05-15T13:58:04.745Z,27.86
2019-05-15T14:00:38.948Z,27.93
2019-05-15T14:03:11.882Z,27.99
2019-05-15T14:05:45.202Z,28.02
2019-05-15T14:08:18.035Z,28.07
2019-05-15T14:10:49.645Z,28.04
2019-05-15T14:13:21.025Z,28.05
2019-05-15T14:15:52.476Z,28.00
2019-05-15T14:18:23.916Z,28.02
2019-05-15T14:20:55.357Z,27.94
2019-05-15T14:23:29.204Z,27.87
2019-05-15T14:26:13.058Z,27.95
2019-05-15T14:28:34.138Z,27.91
2019-05-15T14:31:06.085Z,27.84
2019-05-15T14:33:39.278Z,27.90
2019-05-15T14:36:10.674Z,27.90
2019-05-15T14:38:42.003Z,27.90
2019-05-15T14:41:13.378Z,27.94
2019-05-15T14:43:45.083Z,28.05
2019-05-15T14:46:18.465Z,27.98
2019-05-15T14:48:49.674Z,27.87
2019-05-15T14:51:21.055Z,27.73
2019-05-15T14:53:52.366Z,27.84
2019-05-15T14:56:23.944Z,28.03
2019-05-15T14:58:55.377Z,28.00
2019-05-15T15:01:26.751Z,27.95
2019-05-15T15:03:58.213Z,27.93
2019-05-15T15:06:30.330Z,27.90
2019-05-15T15:09:02.658Z,27.73
2019-05-15T15:11:38.362Z,27.85
2019-05-15T15:14:08.868Z,27.77
2019-05-15T15:16:40.280Z,27.71
2019-05-15T15:19:11.732Z,27.68
2019-05-15T15:21:42.380Z,27.64
2019-05-15T15:24:18.694Z,27.47
2019-05-15T15:26:49.498Z,27.42
2019-05-15T15:29:20.870Z,27.60
2019-05-15T15:31:52.373Z,27.65
2019-05-15T15:34:23.764Z,27.75
2019-05-15T15:36:55.142Z,27.58
2019-05-15T15:39:27.958Z,27.50
2019-05-15T15:41:58.410Z,27.45
2019-05-15T15:44:28.988Z,27.50
2019-05-15T15:47:00.134Z,27.29
2019-05-15T15:49:30.695Z,27.40
2019-05-15T15:52:01.908Z,27.27
2019-05-15T15:54:33.246Z,27.27
2019-05-15T15:57:03.954Z,27.29
2019-05-15T15:59:38.660Z,27.15
2019-05-15T16:02:10.303Z,27.21
2019-05-15T16:04:42.896Z,27.27
2019-05-15T16:07:14.443Z,27.28
2019-05-15T16:09:48.166Z,27.23
2019-05-15T16:12:19.189Z,27.22
2019-05-15T16:14:50.570Z,27.18
2019-05-15T16:17:21.933Z,27.21
2019-05-15T16:19:53.578Z,27.16
2019-05-15T16:22:24.992Z,27.10
2019-05-15T16:25:01.853Z,27.04
2019-05-15T16:27:29.402Z,26.95
2019-05-15T16:30:03.819Z,26.75
2019-05-15T16:32:35.139Z,26.57
2019-05-15T16:35:08.586Z,26.37
2019-05-15T16:37:40.127Z,26.16
2019-05-15T16:40:11.486Z,25.98
2019-05-15T16:42:44.430Z,25.75
2019-05-15T16:45:17.857Z,25.55
2019-05-15T16:47:48.834Z,25.34
2019-05-15T16:50:20.195Z,25.11
2019-05-15T17:16:47.982Z,23.27
2019-05-15T17:19:18.884Z,23.15
2019-05-15T17:21:49.619Z,23.13
2019-05-15T17:24:20.684Z,22.88
2019-05-15T17:26:52.196Z,22.87
2019-05-15T17:29:23.926Z,22.82
2019-05-15T17:31:57.026Z,22.73
2019-05-15T17:34:28.637Z,22.68
2019-05-15T17:37:00.176Z,22.61
2019-05-15T17:39:36.626Z,22.52
2019-05-15T17:42:06.991Z,22.42
2019-05-15T17:44:41.109Z,22.36
2019-05-15T17:47:11.779Z,22.20
2019-05-15T17:49:43.876Z,21.95
2019-05-15T17:52:18.357Z,21.97
2019-05-15T17:54:50.091Z,21.99
2019-05-15T17:57:21.554Z,21.94
2019-05-15T17:59:52.258Z,21.88
2019-05-15T18:02:23.321Z,21.67
2019-05-15T18:04:58.334Z,21.69
2019-05-15T18:07:28.716Z,21.48
2019-05-15T18:09:59.396Z,21.53
2019-05-15T18:12:30.422Z,21.35
2019-05-15T18:15:02.442Z,21.38
2019-05-15T18:17:34.730Z,21.20
2019-05-15T18:20:09.964Z,21.28
2019-05-15T18:22:40.454Z,21.28
2019-05-15T18:25:11.937Z,21.20
2019-05-15T18:27:42.701Z,21.15
2019-05-15T18:30:13.777Z,20.95
2019-05-15T18:32:44.589Z,21.00
2019-05-15T18:35:15.960Z,20.84
2019-05-15T18:37:48.313Z,20.89
2019-05-15T18:40:20.657Z,20.71
2019-05-15T18:42:52.292Z,20.76
2019-05-15T18:45:23.941Z,20.76
2019-05-15T18:47:55.496Z,20.56
2019-05-15T18:50:27.983Z,20.66
2019-05-15T18:53:00.524Z,20.50
2019-05-15T18:55:38.609Z,20.58
2019-05-15T18:58:11.404Z,20.66
2019-05-15T19:00:45.778Z,20.65
2019-05-15T19:03:22.602Z,20.60
2019-05-15T19:05:53.224Z,20.53
2019-05-15T19:08:28.094Z,20.49
2019-05-15T19:11:00.572Z,20.44
2019-05-15T19:13:33.273Z,20.40
2019-05-15T19:16:04.007Z,20.33
2019-05-15T19:18:35.487Z,20.11
2019-05-15T19:21:10.129Z,20.14
2019-05-15T19:23:43.164Z,20.17
2019-05-15T19:26:19.599Z,20.10
2019-05-15T19:28:51.019Z,20.06
2019-05-15T19:31:26.954Z,20.00
2019-05-15T19:33:56.637Z,19.97
2019-05-15T19:36:30.701Z,19.92
2019-05-15T19:39:02.123Z,19.86
2019-05-15T19:41:35.167Z,19.82
2019-05-15T19:44:08.613Z,19.79
2019-05-15T19:46:41.282Z,19.79
2019-05-15T19:49:17.870Z,19.78
2019-05-15T19:51:49.073Z,19.75
2019-05-15T19:54:19.790Z,19.69
2019-05-15T19:56:53.621Z,19.50
2019-05-15T19:59:29.071Z,19.57
2019-05-15T20:01:59.703Z,19.56
2019-05-15T20:04:30.363Z,19.55
2019-05-15T20:07:01.600Z,19.33
2019-05-15T20:09:33.140Z,19.37
2019-05-15T20:12:03.855Z,19.39
2019-05-15T20:14:34.942Z,19.23
2019-05-15T20:17:08.080Z,19.28
2019-05-15T20:19:41.670Z,19.31
2019-05-15T20:22:13.138Z,19.27
2019-05-15T20:24:45.577Z,19.22
2019-05-15T20:27:18.385Z,19.07
2019-05-15T20:29:49.882Z,19.17
2019-05-15T20:32:20.517Z,19.15
2019-05-15T20:34:51.661Z,18.98
2019-05-15T20:37:22.381Z,19.04
2019-05-15T20:39:53.544Z,18.92
2019-05-15T20:42:25.076Z,19.01
2019-05-15T20:44:57.889Z,19.05
2019-05-15T20:47:30.406Z,19.02
2019-05-15T20:50:01.852Z,18.97
2019-05-15T20:52:34.151Z,18.91
2019-05-15T20:55:07.964Z,18.85
2019-05-15T20:57:40.933Z,18.87
2019-05-15T21:00:13.941Z,18.87
2019-05-15T21:02:45.375Z,18.90
2019-05-15T21:05:18.667Z,18.84
2019-05-15T21:07:49.939Z,18.72
2019-05-15T21:10:23.333Z,18.69
2019-05-15T21:12:54.734Z,18.76
2019-05-15T21:15:26.324Z,18.68
2019-05-15T21:18:08.247Z,18.63
2019-05-15T21:20:30.745Z,18.60
2019-05-15T21:23:01.579Z,18.51
2019-05-15T21:25:32.895Z,18.33
2019-05-15T21:28:03.591Z,18.43
2019-05-15T21:30:34.720Z,18.29
2019-05-15T21:33:05.492Z,18.40
2019-05-15T21:35:38.191Z,18.25
2019-05-15T21:38:10.785Z,18.26
2019-05-15T21:40:42.242Z,18.32
2019-05-15T21:43:12.979Z,18.28
2019-05-15T21:45:44.048Z,18.11
2019-05-15T21:48:14.792Z,18.18
2019-05-15T21:50:48.164Z,18.04
2019-05-15T21:53:19.995Z,18.12
2019-05-15T21:55:51.540Z,18.13
2019-05-15T21:58:22.931Z,18.10
2019-05-15T22:00:54.012Z,18.10
2019-05-15T22:03:28.558Z,17.96
2019-05-15T22:05:59.750Z,17.97
2019-05-15T22:08:30.514Z,18.00
2019-05-15T22:11:01.594Z,17.85
2019-05-15T22:13:32.996Z,17.88
2019-05-15T22:16:03.803Z,17.91
2019-05-15T22:18:34.866Z,17.72
2019-05-15T22:21:07.788Z,17.76
2019-05-15T22:23:39.518Z,17.64
2019-05-15T22:26:10.935Z,17.67
2019-05-15T22:28:42.267Z,17.66
2019-05-15T22:31:13.669Z,17.65
2019-05-15T22:33:44.974Z,17.62
2019-05-15T22:36:18.655Z,17.61
2019-05-15T22:38:50.338Z,17.55
2019-05-15T22:41:22.820Z,17.51
2019-05-15T22:43:54.191Z,17.51
2019-05-15T22:46:25.602Z,17.47
2019-05-15T22:48:59.042Z,17.45
2019-05-15T22:51:30.341Z,17.42
2019-05-15T22:54:02.720Z,17.36
2019-05-15T22:56:34.243Z,17.35
2019-05-15T22:59:05.587Z,17.30
2019-05-15T23:01:38.833Z,17.30
2019-05-15T23:04:10.084Z,17.28
2019-05-15T23:06:41.495Z,17.26
2019-05-15T23:09:12.878Z,17.23
2019-05-15T23:11:44.332Z,17.21
2019-05-15T23:14:15.023Z,17.18
2019-05-15T23:16:48.312Z,17.02
2019-05-15T23:19:19.383Z,17.07
2019-05-15T23:21:50.847Z,17.05
2019-05-15T23:24:22.233Z,17.06
2019-05-15T23:26:53.654Z,17.04
2019-05-15T23:29:25.462Z,16.99
2019-05-15T23:31:58.432Z,16.99
2019-05-15T23:34:29.938Z,16.99
2019-05-15T23:37:01.344Z,16.99
2019-05-15T23:39:32.694Z,16.92
2019-05-15T23:42:04.066Z,16.93
2019-05-15T23:44:35.456Z,16.89
2019-05-15T23:47:06.901Z,16.87
2019-05-15T23:49:38.185Z,16.78
2019-05-15T23:52:09.474Z,16.66
2019-05-15T23:54:40.800Z,16.75
2019-05-15T23:57:12.172Z,16.74
2019-05-15T23:59:43.492Z,16.70
